createdAt,value
2023-01-09T00:01:28.324Z,99509.47
2023-01-09T00:03:56.236Z,99512.56
2023-01-09T00:06:25.550Z,99508.97
2023-01-09T00:08:53.508Z,99511.28
2023-01-09T00:11:21.729Z,99514.69
2023-01-09T00:13:49.715Z,99512.59
2023-01-09T00:16:17.956Z,99517.38
2023-01-09T00:18:46.032Z,99512.75
2023-01-09T00:21:14.478Z,99507.28
2023-01-09T00:23:43.896Z,99513.72
2023-01-09T00:26:14.380Z,99501.44
2023-01-09T00:28:42.443Z,99507.66
2023-01-09T00:31:10.950Z,99506.09
2023-01-09T00:33:41.036Z,99504.28
2023-01-09T00:36:09.597Z,99499.75
2023-01-09T00:38:37.875Z,99503.16
2023-01-09T00:41:08.576Z,99508.25
2023-01-09T00:43:39.384Z,99506.03
2023-01-09T00:46:08.304Z,99496.13
2023-01-09T00:48:38.511Z,99491.19
2023-01-09T00:51:08.229Z,99493.03
2023-01-09T00:53:38.243Z,99496.69
2023-01-09T00:56:10.966Z,99496.56
2023-01-09T00:58:39.003Z,99494.47
2023-01-09T01:01:07.335Z,99491.41
2023-01-09T01:03:35.346Z,99487.66
2023-01-09T01:06:21.056Z,99493.28
2023-01-09T01:08:49.026Z,99480.28
2023-01-09T01:11:18.299Z,99478.28
2023-01-09T01:13:46.311Z,99471.09
2023-01-09T01:16:14.847Z,99477.31
2023-01-09T01:18:42.894Z,99472.22
2023-01-09T01:21:13.226Z,99466.97
2023-01-09T01:23:41.384Z,99475.03
2023-01-09T01:26:11.532Z,99463.44
2023-01-09T01:28:41.058Z,99462.72
2023-01-09T01:31:09.546Z,99465.72
2023-01-09T01:33:37.525Z,99467.81
2023-01-09T01:36:07.185Z,99467.09
2023-01-09T01:38:35.559Z,99466.53
2023-01-09T01:41:03.607Z,99465.81
2023-01-09T01:43:51.910Z,99465.81
2023-01-09T01:46:20.305Z,99462.72
2023-01-09T01:48:49.771Z,99457.94
2023-01-09T01:51:18.610Z,99455.41
2023-01-09T01:53:48.515Z,99456.81
2023-01-09T01:56:19.343Z,99451.28
2023-01-09T01:58:49.651Z,99454.81
2023-01-09T02:01:19.464Z,99443.22
2023-01-09T02:03:47.496Z,99444.28
2023-01-09T02:06:15.534Z,99447.41
2023-01-09T02:08:44.225Z,99439.78
2023-01-09T02:11:14.502Z,99437.47
2023-01-09T02:13:43.395Z,99448.28
2023-01-09T02:16:22.731Z,99441.34
2023-01-09T02:18:52.405Z,99434.03
2023-01-09T02:21:29.091Z,99432.47
2023-01-09T02:24:32.388Z,99432.34
2023-01-09T02:27:08.959Z,99424.28
2023-01-09T02:29:47.779Z,99425.69
2023-01-09T02:32:25.630Z,99419.34
2023-01-09T02:34:59.287Z,99418.50
2023-01-09T02:37:33.836Z,99428.16
2023-01-09T02:40:06.119Z,99426.00
2023-01-09T02:42:35.552Z,99424.88
2023-01-09T02:45:03.474Z,99420.50
2023-01-09T02:47:41.318Z,99418.50
2023-01-09T02:50:12.263Z,99418.38
2023-01-09T02:52:51.089Z,99412.84
2023-01-09T02:55:29.919Z,99409.59
2023-01-09T02:58:08.563Z,99416.53
2023-01-09T03:00:41.653Z,99427.84
2023-01-09T03:03:15.908Z,99427.16
2023-01-09T03:05:47.546Z,99423.59
2023-01-09T03:08:18.238Z,99430.81
2023-01-09T03:10:51.937Z,99434.50
2023-01-09T03:13:21.179Z,99425.44
2023-01-09T03:15:50.810Z,99432.97
2023-01-09T03:18:23.045Z,99437.34
2023-01-09T03:20:51.548Z,99442.44
2023-01-09T03:23:19.512Z,99449.09
2023-01-09T03:25:47.492Z,99442.00
2023-01-09T03:28:28.361Z,99438.06
2023-01-09T03:30:56.243Z,99454.47
2023-01-09T03:33:25.610Z,99456.31
2023-01-09T03:35:53.522Z,99451.91
2023-01-09T03:38:21.402Z,99459.00
2023-01-09T03:40:49.319Z,99452.63
2023-01-09T03:43:17.242Z,99454.59
2023-01-09T03:45:45.232Z,99446.97
2023-01-09T03:48:13.176Z,99453.91
2023-01-09T03:50:45.861Z,99451.47
2023-01-09T03:53:13.908Z,99455.34
2023-01-09T03:55:45.063Z,99454.75
2023-01-09T03:58:13.096Z,99457.16
2023-01-09T04:00:41.060Z,99456.31
2023-01-09T04:03:09.621Z,99455.19
2023-01-09T04:05:37.576Z,99460.28
2023-01-09T04:08:07.420Z,99458.72
2023-01-09T04:10:35.392Z,99452.22
2023-01-09T04:13:03.319Z,99457.59
2023-01-09T04:15:31.266Z,99461.84
2023-01-09T04:17:59.171Z,99463.66
2023-01-09T04:20:27.101Z,99460.28
2023-01-09T04:22:54.964Z,99451.19
2023-01-09T04:25:24.249Z,99456.72
2023-01-09T04:27:52.187Z,99454.19
2023-01-09T04:30:20.397Z,99454.19
2023-01-09T04:32:48.314Z,99456.88
2023-01-09T04:35:16.329Z,99467.50
2023-01-09T04:37:44.300Z,99465.94
2023-01-09T04:40:13.462Z,99468.47
2023-01-09T04:42:42.847Z,99479.13
2023-01-09T04:45:12.114Z,99476.84
2023-01-09T04:47:40.029Z,99482.78
2023-01-09T04:50:08.443Z,99484.63
2023-01-09T04:52:38.872Z,99485.63
2023-01-09T04:55:08.207Z,99494.41
2023-01-09T04:57:36.292Z,99488.03
2023-01-09T05:00:09.872Z,99491.56
2023-01-09T05:02:38.259Z,99482.06
2023-01-09T05:05:09.686Z,99481.22
2023-01-09T05:07:39.254Z,99484.22
2023-01-09T05:10:08.543Z,99480.66
2023-01-09T05:12:39.839Z,99488.44
2023-01-09T05:15:10.547Z,99491.41
2023-01-09T05:17:38.469Z,99490.56
2023-01-09T05:20:07.071Z,99490.16
2023-01-09T05:22:35.004Z,99487.03
2023-01-09T05:25:02.895Z,99495.97
2023-01-09T05:27:30.850Z,99496.50
2023-01-09T05:29:58.761Z,99497.78
2023-01-09T05:32:28.042Z,99498.38
2023-01-09T05:34:55.945Z,99507.69
2023-01-09T05:37:23.850Z,99504.47
2023-01-09T05:39:51.775Z,99506.88
2023-01-09T05:42:19.674Z,99506.00
2023-01-09T05:44:47.577Z,99512.25
2023-01-09T05:47:15.502Z,99508.13
2023-01-09T05:49:44.827Z,99508.97
2023-01-09T05:52:12.731Z,99510.53
2023-01-09T05:54:40.647Z,99514.50
2023-01-09T05:57:08.533Z,99512.53
2023-01-09T05:59:36.430Z,99515.22
2023-01-09T06:02:04.419Z,99517.31
2023-01-09T06:04:32.339Z,99516.06
2023-01-09T06:07:01.651Z,99521.72
2023-01-09T06:09:30.745Z,99535.03
2023-01-09T06:11:58.869Z,99533.34
2023-01-09T06:14:29.089Z,99542.81
2023-01-09T06:16:57.016Z,99532.19
2023-01-09T06:19:24.938Z,99539.53
2023-01-09T06:21:53.753Z,99542.94
2023-01-09T06:24:23.093Z,99542.09
2023-01-09T06:26:50.995Z,99551.44
2023-01-09T06:29:19.142Z,99547.03
2023-01-09T06:31:47.031Z,99549.00
2023-01-09T06:34:15.014Z,99544.06
2023-01-09T06:36:42.938Z,99547.72
2023-01-09T06:39:14.196Z,99558.22
2023-01-09T06:41:47.044Z,99557.63
2023-01-09T06:44:16.413Z,99559.03
2023-01-09T06:46:44.317Z,99561.00
2023-01-09T06:49:12.886Z,99568.22
2023-01-09T06:51:43.099Z,99573.88
2023-01-09T06:54:10.967Z,99579.38
2023-01-09T06:56:38.882Z,99581.22
2023-01-09T06:59:08.150Z,99580.38
2023-01-09T07:01:36.231Z,99586.47
2023-01-09T07:04:05.388Z,99585.75
2023-01-09T07:06:33.732Z,99587.88
2023-01-09T07:09:01.678Z,99591.41
2023-01-09T07:11:29.618Z,99600.19
2023-01-09T07:13:57.550Z,99604.44
2023-01-09T07:16:26.866Z,99612.22
2023-01-09T07:18:54.937Z,99612.09
2023-01-09T07:21:22.906Z,99627.84
2023-01-09T07:23:50.814Z,99626.13
2023-01-09T07:26:18.718Z,99632.09
2023-01-09T07:28:46.617Z,99631.34
2023-01-09T07:31:14.651Z,99645.38
2023-01-09T07:33:44.030Z,99649.19
2023-01-09T07:36:12.689Z,99653.88
2023-01-09T07:38:40.629Z,99659.69
2023-01-09T07:41:11.413Z,99659.81
2023-01-09T07:43:39.827Z,99658.69
2023-01-09T07:46:07.951Z,99666.91
2023-01-09T07:48:35.901Z,99665.06
2023-01-09T07:51:06.242Z,99675.94
2023-01-09T07:53:34.156Z,99673.56
2023-01-09T07:56:02.079Z,99671.97
2023-01-09T07:58:29.982Z,99680.59
2023-01-09T08:00:57.943Z,99675.59
2023-01-09T08:03:26.895Z,99687.34
2023-01-09T08:05:54.905Z,99685.16
2023-01-09T08:08:24.195Z,99688.25
2023-01-09T08:10:52.165Z,99690.94
2023-01-09T08:13:20.084Z,99694.41
2023-01-09T08:15:48.108Z,99704.06
2023-01-09T08:18:16.045Z,99700.66
2023-01-09T08:20:43.934Z,99703.34
2023-01-09T08:23:11.848Z,99703.53
2023-01-09T08:25:41.121Z,99705.00
2023-01-09T08:28:09.520Z,99705.13
2023-01-09T08:30:37.648Z,99705.72
2023-01-09T08:33:05.943Z,99702.94
2023-01-09T08:35:33.884Z,99707.84
2023-01-09T08:38:01.870Z,99720.19
2023-01-09T08:40:29.854Z,99721.28
2023-01-09T08:43:16.715Z,99715.06
2023-01-09T08:46:16.745Z,99710.91
2023-01-09T08:48:44.722Z,99720.69
2023-01-09T08:51:12.791Z,99719.47
2023-01-09T08:53:40.712Z,99713.34
2023-01-09T08:56:09.732Z,99724.84
2023-01-09T08:58:39.010Z,99727.97
2023-01-09T09:01:07.816Z,99726.00
2023-01-09T09:03:35.755Z,99725.19
2023-01-09T09:06:04.145Z,99735.28
2023-01-09T09:08:32.091Z,99734.28
2023-01-09T09:11:01.295Z,99735.59
2023-01-09T09:13:29.224Z,99745.13
2023-01-09T09:15:58.608Z,99749.63
2023-01-09T09:18:26.624Z,99751.06
2023-01-09T09:20:56.700Z,99754.03
2023-01-09T09:23:24.739Z,99761.25
2023-01-09T09:25:52.653Z,99757.03
2023-01-09T09:28:20.607Z,99767.00
2023-01-09T09:30:48.640Z,99768.00
2023-01-09T09:33:18.009Z,99772.09
2023-01-09T09:35:46.421Z,99770.28
2023-01-09T09:38:14.631Z,99778.22
2023-01-09T09:41:38.106Z,99779.06
2023-01-09T09:44:34.362Z,99781.88
2023-01-09T09:47:05.518Z,99783.00
2023-01-09T09:49:39.667Z,99773.13
2023-01-09T09:52:12.580Z,99793.16
2023-01-09T09:54:42.671Z,99784.69
2023-01-09T09:57:15.626Z,99788.63
2023-01-09T09:59:44.553Z,99786.81
2023-01-09T10:02:25.533Z,99793.16
2023-01-09T10:05:00.577Z,99788.78
2023-01-09T10:07:32.105Z,99780.44
2023-01-09T10:10:05.096Z,99784.97
2023-01-09T10:12:35.212Z,99789.25
2023-01-09T10:15:14.949Z,99786.28
2023-01-09T10:17:53.108Z,99788.34
2023-01-09T10:20:36.836Z,99788.19
2023-01-09T10:23:25.967Z,99778.56
2023-01-09T10:25:57.499Z,99792.25
2023-01-09T10:29:05.513Z,99784.38
2023-01-09T10:31:38.368Z,99786.75
2023-01-09T10:34:15.848Z,99786.34
2023-01-09T10:36:59.225Z,99793.63
2023-01-09T10:39:29.847Z,99782.03
2023-01-09T10:42:01.587Z,99776.25
2023-01-09T10:44:35.871Z,99776.97
2023-01-09T10:47:05.663Z,99772.66
2023-01-09T10:49:33.546Z,99778.47
2023-01-09T10:52:11.864Z,99778.34
2023-01-09T10:54:43.392Z,99770.88
2023-01-09T10:57:14.782Z,99773.41
2023-01-09T10:59:43.185Z,99769.50
2023-01-09T11:02:24.314Z,99765.25
2023-01-09T11:04:52.264Z,99765.72
2023-01-09T11:07:23.833Z,99769.97
2023-01-09T11:10:00.479Z,99767.91
2023-01-09T11:12:29.844Z,99766.78
2023-01-09T11:14:58.268Z,99759.75
2023-01-09T11:17:27.996Z,99766.09
2023-01-09T11:20:03.294Z,99757.06
2023-01-09T11:22:44.031Z,99753.06
2023-01-09T11:25:14.641Z,99746.97
2023-01-09T11:27:42.625Z,99741.31
2023-01-09T11:30:24.065Z,99742.19
2023-01-09T11:32:52.016Z,99739.66
2023-01-09T11:35:23.225Z,99739.94
2023-01-09T11:38:04.735Z,99742.78
2023-01-09T11:40:37.704Z,99727.75
2023-01-09T11:43:14.259Z,99729.28
2023-01-09T11:46:00.689Z,99733.81
2023-01-09T11:48:40.761Z,99721.53
2023-01-09T11:51:20.697Z,99727.63
2023-01-09T11:54:23.717Z,99728.59
2023-01-09T11:56:53.521Z,99719.97
2023-01-09T11:59:22.634Z,99721.78
2023-01-09T12:02:02.406Z,99717.44
2023-01-09T12:04:33.243Z,99719.00
2023-01-09T12:07:13.447Z,99716.56
2023-01-09T12:09:47.450Z,99714.00
2023-01-09T12:12:27.812Z,99713.44
2023-01-09T12:15:05.447Z,99715.00
2023-01-09T12:18:03.376Z,99719.28
2023-01-09T12:20:52.472Z,99718.84
2023-01-09T12:23:26.515Z,99711.72
2023-01-09T12:26:03.030Z,99713.84
2023-01-09T12:28:51.560Z,99709.56
2023-01-09T12:31:29.791Z,99713.00
2023-01-09T12:34:05.646Z,99709.31
2023-01-09T12:36:41.708Z,99717.25
2023-01-09T12:39:20.874Z,99722.66
2023-01-09T12:42:01.312Z,99712.75
2023-01-09T12:44:45.306Z,99717.50
2023-01-09T12:47:46.656Z,99709.47
2023-01-09T12:50:29.164Z,99712.41
2023-01-09T12:53:04.816Z,99712.44
2023-01-09T12:55:35.280Z,99715.56
2023-01-09T12:58:08.682Z,99719.00
2023-01-09T13:00:41.645Z,99719.44
2023-01-09T13:03:14.889Z,99720.28
2023-01-09T13:05:45.510Z,99723.53
2023-01-09T13:08:16.910Z,99720.94
2023-01-09T13:10:47.518Z,99709.91
2023-01-09T13:13:18.438Z,99717.38
2023-01-09T13:15:49.229Z,99717.13
2023-01-09T13:18:21.992Z,99715.44
2023-01-09T13:20:52.346Z,99725.19
2023-01-09T13:23:24.328Z,99726.91
2023-01-09T13:25:53.319Z,99725.78
2023-01-09T13:28:24.658Z,99732.84
2023-01-09T13:31:05.068Z,99736.41
2023-01-09T13:33:34.342Z,99739.94
2023-01-09T13:36:03.522Z,99748.28
2023-01-09T13:38:32.836Z,99751.44
2023-01-09T13:41:23.570Z,99750.44
2023-01-09T13:43:56.633Z,99751.00
2023-01-09T13:46:35.609Z,99751.41
2023-01-09T13:49:03.868Z,99752.66
2023-01-09T13:52:00.037Z,99756.19
2023-01-09T13:55:01.041Z,99761.75
2023-01-09T13:57:30.977Z,99766.59
2023-01-09T14:00:44.417Z,99766.00
2023-01-09T14:03:21.574Z,99770.78
2023-01-09T14:06:17.607Z,99777.28
2023-01-09T14:08:46.961Z,99779.44
2023-01-09T14:11:27.567Z,99787.38
2023-01-09T14:14:07.998Z,99790.63
2023-01-09T14:16:38.130Z,99795.28
2023-01-09T14:19:20.266Z,99798.38
2023-01-09T14:21:51.115Z,99799.34
2023-01-09T14:24:25.489Z,99812.94
2023-01-09T14:26:57.169Z,99818.47
2023-01-09T14:29:45.885Z,99829.25
2023-01-09T14:32:41.952Z,99831.50
2023-01-09T14:35:16.827Z,99839.88
2023-01-09T14:37:46.981Z,99843.28
2023-01-09T14:40:23.709Z,99844.84
2023-01-09T14:42:54.777Z,99857.06
2023-01-09T14:45:24.954Z,99859.59
2023-01-09T14:47:56.166Z,99866.56
2023-01-09T14:50:32.023Z,99868.28
2023-01-09T14:53:05.714Z,99867.41
2023-01-09T14:55:41.503Z,99877.34
2023-01-09T14:58:13.466Z,99870.13
2023-01-09T15:00:49.751Z,99874.53
2023-01-09T15:03:18.444Z,99884.25
2023-01-09T15:05:48.487Z,99886.34
2023-01-09T15:08:18.337Z,99888.75
2023-01-09T15:10:48.412Z,99898.81
2023-01-09T15:13:20.435Z,99902.22
2023-01-09T15:15:49.035Z,99903.09
2023-01-09T15:18:22.347Z,99905.78
2023-01-09T15:20:56.669Z,99904.91
2023-01-09T15:23:29.268Z,99908.47
2023-01-09T15:25:57.714Z,99913.84
2023-01-09T15:28:28.991Z,99920.09
2023-01-09T15:31:04.608Z,99918.63
2023-01-09T15:33:32.837Z,99926.00
2023-01-09T15:36:04.512Z,99924.41
2023-01-09T15:38:33.395Z,99930.06
2023-01-09T15:41:02.992Z,99937.56
2023-01-09T15:43:30.510Z,99936.69
2023-01-09T15:45:58.815Z,99932.16
2023-01-09T15:48:27.962Z,99929.84
2023-01-09T15:50:58.192Z,99928.88
2023-01-09T15:53:28.444Z,99933.53
2023-01-09T15:56:17.610Z,99947.97
2023-01-09T15:58:47.274Z,99957.63
2023-01-09T16:01:30.920Z,99953.09
2023-01-09T16:04:04.690Z,99963.72
2023-01-09T16:06:33.862Z,99963.03
2023-01-09T16:09:03.424Z,99966.72
2023-01-09T16:11:32.889Z,99969.53
2023-01-09T16:14:13.526Z,99977.03
2023-01-09T16:16:41.659Z,99983.50
2023-01-09T16:19:31.460Z,99990.47
2023-01-09T16:22:00.808Z,99993.03
2023-01-09T16:24:38.996Z,100003.94
2023-01-09T16:27:28.759Z,100005.88
2023-01-09T16:29:58.592Z,100011.13
2023-01-09T16:32:29.045Z,100018.34
2023-01-09T16:34:58.155Z,100016.63
2023-01-09T16:37:26.808Z,100020.19
2023-01-09T16:40:25.283Z,100028.38
2023-01-09T16:43:03.860Z,100028.38
2023-01-09T16:45:34.679Z,100034.88
2023-01-09T16:48:03.264Z,100042.09
2023-01-09T16:50:31.357Z,100042.31
2023-01-09T16:53:00.859Z,100053.22
2023-01-09T16:55:30.188Z,100053.34
2023-01-09T16:57:58.100Z,100053.47
2023-01-09T17:00:26.180Z,100053.72
2023-01-09T17:02:54.102Z,100057.13
2023-01-09T17:05:22.150Z,100069.59
2023-01-09T17:07:50.067Z,100080.38
2023-01-09T17:10:21.674Z,100085.03
2023-01-09T17:12:51.046Z,100097.72
2023-01-09T17:15:19.080Z,100095.28
2023-01-09T17:17:47.007Z,100102.50
2023-01-09T17:20:16.836Z,100114.94
2023-01-09T17:22:44.775Z,100114.09
2023-01-09T17:25:33.155Z,100111.41
2023-01-09T17:28:20.293Z,100111.69
2023-01-09T17:30:48.241Z,100118.16
2023-01-09T17:33:16.966Z,100127.06
2023-01-09T17:35:45.186Z,100130.13
2023-01-09T17:38:14.471Z,100130.97
2023-01-09T17:40:42.843Z,100139.53
2023-01-09T17:43:12.313Z,100138.44
2023-01-09T17:45:42.035Z,100138.69
2023-01-09T17:48:15.512Z,100145.03
2023-01-09T17:50:43.499Z,100150.16
2023-01-09T17:53:11.681Z,100154.44
2023-01-09T17:55:39.740Z,100159.81
2023-01-09T17:58:07.717Z,100154.19
2023-01-09T18:00:37.755Z,100172.66
2023-01-09T18:03:07.586Z,100174.63
2023-01-09T18:05:37.047Z,100174.47
2023-01-09T18:08:05.843Z,100176.06
2023-01-09T18:10:33.835Z,100178.91
2023-01-09T18:13:01.886Z,100191.34
2023-01-09T18:15:29.775Z,100190.59
2023-01-09T18:17:59.128Z,100207.59
2023-01-09T18:20:27.103Z,100209.34
2023-01-09T18:22:55.031Z,100206.41
2023-01-09T18:25:22.939Z,100215.31
2023-01-09T18:27:51.751Z,100227.16
2023-01-09T18:30:19.655Z,100234.25
2023-01-09T18:32:47.570Z,100238.69
2023-01-09T18:35:16.991Z,100246.47
2023-01-09T18:37:44.921Z,100247.34
2023-01-09T18:40:13.491Z,100250.88
2023-01-09T18:42:42.050Z,100248.81
2023-01-09T18:45:11.914Z,100263.47
2023-01-09T18:47:39.886Z,100264.19
2023-01-09T18:50:08.620Z,100265.06
2023-01-09T18:52:37.928Z,100271.16
2023-01-09T18:55:06.754Z,100281.09
2023-01-09T18:57:34.663Z,100282.28
2023-01-09T19:00:02.595Z,100289.16
2023-01-09T19:02:30.487Z,100291.97
2023-01-09T19:04:58.384Z,100293.56
2023-01-09T19:07:26.309Z,100304.31
2023-01-09T19:09:55.662Z,100307.00
2023-01-09T19:12:23.566Z,100313.47
2023-01-09T19:14:52.339Z,100317.25
2023-01-09T19:17:20.865Z,100319.59
2023-01-09T19:19:49.295Z,100321.44
2023-01-09T19:22:17.237Z,100324.97
2023-01-09T19:24:45.367Z,100332.19
2023-01-09T19:27:14.676Z,100330.59
2023-01-09T19:29:42.547Z,100330.59
2023-01-09T19:32:10.468Z,100334.13
2023-01-09T19:34:38.524Z,100343.28
2023-01-09T19:37:09.147Z,100352.94
2023-01-09T19:39:37.672Z,100356.72
2023-01-09T19:42:05.629Z,100358.31
2023-01-09T19:44:34.935Z,100366.53
2023-01-09T19:47:02.846Z,100378.16
2023-01-09T19:49:30.756Z,100372.75
2023-01-09T19:52:00.679Z,100379.34
2023-01-09T19:54:29.233Z,100382.88
2023-01-09T19:56:57.400Z,100383.88
2023-01-09T19:59:25.358Z,100385.72
2023-01-09T20:01:55.356Z,100391.09
2023-01-09T20:04:23.479Z,100393.63
2023-01-09T20:06:52.707Z,100395.38
2023-01-09T20:09:22.587Z,100401.72
2023-01-09T20:11:50.593Z,100401.72
2023-01-09T20:14:19.950Z,100418.06
2023-01-09T20:16:48.730Z,100420.53
2023-01-09T20:19:18.205Z,100428.59
2023-01-09T20:21:46.202Z,100433.88
2023-01-09T20:24:16.831Z,100433.03
2023-01-09T20:26:46.197Z,100436.56
2023-01-09T20:29:14.334Z,100442.78
2023-01-09T20:31:42.360Z,100440.09
2023-01-09T20:34:11.254Z,100438.41
2023-01-09T20:36:40.709Z,100454.75
2023-01-09T20:39:10.666Z,100463.47
2023-01-09T20:41:38.996Z,100470.53
2023-01-09T20:44:08.646Z,100478.50
2023-01-09T20:46:38.204Z,100481.28
2023-01-09T20:49:07.666Z,100480.44
2023-01-09T20:51:35.860Z,100486.59
2023-01-09T20:54:05.516Z,100493.03
2023-01-09T20:56:33.617Z,100490.88
2023-01-09T20:59:01.851Z,100496.34
2023-01-09T21:01:29.908Z,100497.56
2023-01-09T21:03:58.593Z,100511.63
2023-01-09T21:06:27.641Z,100512.59
2023-01-09T21:08:55.675Z,100513.69
2023-01-09T21:11:24.974Z,100517.84
2023-01-09T21:13:53.277Z,100523.16
2023-01-09T21:16:24.516Z,100531.22
2023-01-09T21:18:53.521Z,100535.50
2023-01-09T21:21:24.078Z,100530.22
2023-01-09T21:23:53.062Z,100535.38
2023-01-09T21:26:24.413Z,100535.38
2023-01-09T21:28:55.301Z,100531.94
2023-01-09T21:31:25.651Z,100539.91
2023-01-09T21:33:54.692Z,100550.56
2023-01-09T21:36:22.640Z,100553.13
2023-01-09T21:38:52.137Z,100559.59
2023-01-09T21:41:37.717Z,100563.78
2023-01-09T21:44:24.752Z,100566.47
2023-01-09T21:46:52.668Z,100572.81
2023-01-09T21:49:20.847Z,100578.06
2023-01-09T21:51:48.977Z,100583.56
2023-01-09T21:54:16.899Z,100589.81
2023-01-09T21:56:44.824Z,100599.72
2023-01-09T21:59:14.152Z,100596.28
2023-01-09T22:01:42.087Z,100601.53
2023-01-09T22:04:10.239Z,100606.91
2023-01-09T22:06:38.175Z,100613.03
2023-01-09T22:09:06.087Z,100619.41
2023-01-09T22:11:34.069Z,100629.09
2023-01-09T22:14:01.998Z,100630.16
2023-01-09T22:16:31.376Z,100630.91
2023-01-09T22:18:59.272Z,100635.44
2023-01-09T22:21:27.380Z,100639.94
2023-01-09T22:23:55.344Z,100645.44
2023-01-09T22:26:23.306Z,100649.75
2023-01-09T22:28:51.639Z,100653.28
2023-01-09T22:31:20.995Z,100660.38
2023-01-09T22:33:54.126Z,100654.25
2023-01-09T22:36:22.160Z,100657.69
2023-01-09T22:38:50.040Z,100662.31
2023-01-09T22:41:17.991Z,100671.38
2023-01-09T22:43:45.922Z,100680.28
2023-01-09T22:46:13.913Z,100681.28
2023-01-09T22:48:42.137Z,100689.34
2023-01-09T22:51:13.756Z,100687.63
2023-01-09T22:53:41.754Z,100695.69
2023-01-09T22:56:13.293Z,100708.38
2023-01-09T22:58:41.242Z,100709.13
2023-01-09T23:01:11.242Z,100710.00
2023-01-09T23:03:39.219Z,100715.59
2023-01-09T23:06:08.889Z,100715.59
2023-01-09T23:08:38.491Z,100716.88
2023-01-09T23:11:08.229Z,100718.94
2023-01-09T23:13:36.209Z,100733.34
2023-01-09T23:16:04.200Z,100734.22
2023-01-09T23:18:32.274Z,100736.91
2023-01-09T23:21:02.173Z,100738.72
2023-01-09T23:23:31.659Z,100744.00
2023-01-09T23:26:04.841Z,100749.16
2023-01-09T23:28:32.780Z,100757.97
2023-01-09T23:31:00.679Z,100763.16
2023-01-09T23:33:28.607Z,100771.13
2023-01-09T23:35:56.514Z,100772.81
2023-01-09T23:38:24.390Z,100778.00
2023-01-09T23:40:56.891Z,100779.94
2023-01-09T23:43:25.232Z,100775.22
2023-01-09T23:45:53.657Z,100773.34
2023-01-09T23:48:21.618Z,100779.72
2023-01-09T23:50:50.831Z,100793.06
2023-01-09T23:53:19.210Z,100787.81
2023-01-09T23:55:47.200Z,100790.69
2023-01-09T23:58:15.159Z,100789.75
